Time;durP1;ratioP1;P1;durP2;ratioP2;P2;SDS_P1;SDS_P2;PMS_P1;PMS_P2;Temp;Humidity;BMP_temperature;BMP_pressure;BME280_temperature;BME280_humidity;BME280_pressure;Samples;Min_cycle;Max_cycle;Signal;HPM_P1;HPM_P2
2022/03/09 00:01:15;;;;;;;10.37;3.77;;;0.70;99.90;;;;;;4938605;29;20073;-90
2022/03/09 00:03:40;;;;;;;10.03;3.70;;;0.50;99.90;;;;;;4938140;29;20122;-90
2022/03/09 00:06:06;;;;;;;11.40;4.53;;;0.40;99.90;;;;;;4937010;29;20055;-88
2022/03/09 00:08:32;;;;;;;11.27;4.13;;;0.40;99.90;;;;;;4957274;29;20412;-88
2022/03/09 00:10:57;;;;;;;9.87;3.70;;;0.30;99.90;;;;;;4939415;29;20051;-89
2022/03/09 00:13:23;;;;;;;11.47;4.17;;;0.20;99.90;;;;;;4937130;29;20093;-89
2022/03/09 00:15:49;;;;;;;9.30;3.73;;;0.40;99.90;;;;;;4937919;29;20058;-89
2022/03/09 00:18:14;;;;;;;12.07;4.10;;;0.20;99.90;;;;;;4941335;29;20047;-90
2022/03/09 00:20:40;;;;;;;10.87;4.43;;;0.20;99.90;;;;;;4940095;29;20427;-89
2022/03/09 00:23:05;;;;;;;11.93;4.53;;;0.20;99.90;;;;;;4937844;29;20059;-89
2022/03/09 00:25:31;;;;;;;10.30;4.47;;;0.20;99.90;;;;;;4937557;29;20046;-89
2022/03/09 00:27:57;;;;;;;10.63;4.23;;;0.30;99.90;;;;;;4937288;29;20410;-89
2022/03/09 00:30:23;;;;;;;12.03;4.03;;;0.30;99.90;;;;;;4937450;29;20130;-89
2022/03/09 00:32:49;;;;;;;10.33;4.43;;;0.40;99.90;;;;;;4936692;29;20054;-89
2022/03/09 00:35:15;;;;;;;11.20;4.30;;;0.50;99.90;;;;;;4937284;29;20402;-89
2022/03/09 00:37:41;;;;;;;12.00;4.87;;;0.70;99.90;;;;;;4931771;29;20092;-89
2022/03/09 00:40:07;;;;;;;11.77;5.00;;;0.80;99.90;;;;;;4917961;29;20058;-89
2022/03/09 00:42:39;;;;;;;11.80;4.80;;;0.70;99.90;;;;;;4918798;29;20390;-89
2022/03/09 00:45:06;;;;;;;13.30;4.73;;;0.80;99.90;;;;;;4918111;29;20055;-89
2022/03/09 00:47:32;;;;;;;11.33;4.47;;;0.80;99.90;;;;;;4917890;29;20051;-89
2022/03/09 00:49:58;;;;;;;11.30;4.80;;;0.70;99.90;;;;;;4918370;29;20047;-89
2022/03/09 00:52:24;;;;;;;12.50;4.77;;;0.70;99.90;;;;;;4917952;29;20062;-89
2022/03/09 00:54:50;;;;;;;11.53;4.63;;;0.70;99.90;;;;;;4917562;29;20051;-89
2022/03/09 00:57:16;;;;;;;12.43;4.87;;;0.60;99.90;;;;;;4917881;29;20052;-90
2022/03/09 00:59:41;;;;;;;12.10;4.87;;;0.50;99.90;;;;;;4918172;29;20391;-89
2022/03/09 01:02:07;;;;;;;10.53;4.40;;;0.40;99.90;;;;;;4934176;29;20043;-89
2022/03/09 01:04:34;;;;;;;11.70;4.90;;;0.30;99.90;;;;;;4918371;29;20143;-89
2022/03/09 01:07:00;;;;;;;13.13;4.83;;;0.20;99.90;;;;;;4918224;29;20134;-89
2022/03/09 01:09:26;;;;;;;11.23;4.80;;;0.10;99.90;;;;;;4917204;29;20135;-89
2022/03/09 01:11:51;;;;;;;13.33;5.23;;;-0.10;99.90;;;;;;4917980;29;20455;-89
2022/03/09 01:14:17;;;;;;;13.03;5.10;;;-0.10;99.90;;;;;;4918120;29;20040;-88
2022/03/09 01:16:42;;;;;;;13.80;4.70;;;0.00;99.90;;;;;;4917832;29;20094;-89
2022/03/09 01:19:08;;;;;;;12.97;5.00;;;-0.20;99.90;;;;;;4917733;29;20051;-88
2022/03/09 01:21:34;;;;;;;11.60;4.53;;;-0.30;99.90;;;;;;4935168;29;20055;-88
2022/03/09 01:24:00;;;;;;;14.23;5.27;;;-0.30;99.90;;;;;;4917199;29;20063;-89
2022/03/09 01:26:26;;;;;;;13.07;4.90;;;-0.40;99.90;;;;;;4934831;29;20036;-89
2022/03/09 01:28:52;;;;;;;12.23;4.70;;;-0.40;99.90;;;;;;4918097;29;20102;-89
2022/03/09 01:31:17;;;;;;;12.00;5.37;;;-0.40;99.90;;;;;;4917317;29;20051;-89
2022/03/09 01:33:43;;;;;;;13.93;5.67;;;-0.50;99.90;;;;;;4918019;29;20135;-89
2022/03/09 01:36:09;;;;;;;12.63;5.50;;;-0.60;99.90;;;;;;4916705;29;20047;-89
2022/03/09 01:38:34;;;;;;;11.87;5.43;;;-0.70;99.90;;;;;;4927262;29;20392;-89
2022/03/09 01:41:00;;;;;;;12.50;5.00;;;-0.70;99.90;;;;;;4933711;29;20062;-88
2022/03/09 01:43:25;;;;;;;12.50;5.30;;;-0.80;99.90;;;;;;4932691;29;20048;-89
2022/03/09 01:45:51;;;;;;;13.03;5.53;;;-0.80;99.90;;;;;;4941071;29;20055;-88
2022/03/09 01:48:17;;;;;;;12.53;5.20;;;-0.90;99.90;;;;;;4953574;28;20082;-89
2022/03/09 01:50:44;;;;;;;13.67;5.03;;;-0.90;99.90;;;;;;4939167;29;20043;-88
2022/03/09 01:53:11;;;;;;;12.20;5.13;;;-1.00;99.90;;;;;;4937953;29;20423;-88
2022/03/09 01:55:37;;;;;;;11.97;5.00;;;-1.00;99.90;;;;;;4940839;29;20051;-89
2022/03/09 01:58:03;;;;;;;11.70;5.03;;;-1.00;99.90;;;;;;4941443;29;20406;-88
2022/03/09 02:00:29;;;;;;;13.80;5.37;;;-1.10;99.90;;;;;;4941392;29;20039;-88
2022/03/09 02:02:54;;;;;;;13.73;5.57;;;-1.10;99.90;;;;;;4940265;29;20510;-88
2022/03/09 02:05:20;;;;;;;13.73;6.00;;;-1.10;99.90;;;;;;4939471;29;20039;-88
2022/03/09 02:10:30;;;;;;;14.15;5.50;;;-1.30;99.90;;;;;;4940180;29;20051;-88
2022/03/09 02:12:56;;;;;;;13.73;5.97;;;-1.30;99.90;;;;;;4939425;29;20051;-88
2022/03/09 02:15:22;;;;;;;13.13;5.23;;;-1.30;99.90;;;;;;4939721;29;20046;-88
2022/03/09 02:17:47;;;;;;;13.47;6.23;;;-1.40;99.90;;;;;;4940309;29;20124;-88
2022/03/09 02:20:13;;;;;;;14.57;6.07;;;-1.40;99.90;;;;;;4939297;29;20081;-88
2022/03/09 02:22:41;;;;;;;13.10;5.67;;;-1.40;99.90;;;;;;4940158;29;20039;-88
2022/03/09 02:25:10;;;;;;;13.67;6.03;;;-1.40;99.90;;;;;;4939513;29;20051;-88
2022/03/09 02:27:36;;;;;;;13.20;5.90;;;-1.40;99.90;;;;;;4938937;29;20130;-88
2022/03/09 02:30:02;;;;;;;16.17;5.73;;;-1.50;99.90;;;;;;4940062;29;20131;-88
2022/03/09 02:32:28;;;;;;;12.40;5.40;;;-1.50;99.90;;;;;;4939129;29;20043;-88
2022/03/09 02:34:53;;;;;;;12.80;5.73;;;-1.50;99.90;;;;;;4939589;29;20043;-88
2022/03/09 02:37:19;;;;;;;13.23;5.53;;;-1.50;99.90;;;;;;4939029;29;20051;-88
2022/03/09 02:39:44;;;;;;;13.00;5.87;;;-1.60;99.90;;;;;;4938935;29;20418;-88
2022/03/09 02:42:11;;;;;;;14.77;6.67;;;-1.60;99.90;;;;;;4939000;29;20043;-87
2022/03/09 02:44:37;;;;;;;14.33;5.90;;;-1.60;99.90;;;;;;4939563;29;20058;-88
2022/03/09 02:47:03;;;;;;;13.50;5.67;;;-1.70;99.90;;;;;;4938716;29;20136;-88
2022/03/09 02:49:29;;;;;;;12.73;6.07;;;-1.70;99.90;;;;;;4939651;29;20101;-88
2022/03/09 02:51:55;;;;;;;12.63;5.63;;;-1.70;99.90;;;;;;4939420;29;20133;-88
2022/03/09 02:54:20;;;;;;;13.70;5.90;;;-1.70;99.90;;;;;;4938499;29;19929;-88
2022/03/09 02:56:46;;;;;;;14.30;6.30;;;-1.70;99.90;;;;;;4939583;29;20101;-88
2022/03/09 02:59:12;;;;;;;14.30;6.20;;;-1.70;99.90;;;;;;4939113;29;20058;-88
2022/03/09 03:01:37;;;;;;;13.60;5.97;;;-1.60;99.90;;;;;;4915813;29;20048;-88
2022/03/09 03:04:03;;;;;;;14.00;6.13;;;-1.70;99.90;;;;;;4918135;29;20115;-87
2022/03/09 03:06:29;;;;;;;13.93;6.13;;;-1.70;99.90;;;;;;4917234;29;20051;-87
2022/03/09 03:08:55;;;;;;;13.53;6.07;;;-1.70;99.90;;;;;;4900261;29;20086;-87
2022/03/09 03:11:20;;;;;;;14.60;6.33;;;-1.70;99.90;;;;;;4900806;29;20044;-88
2022/03/09 03:13:48;;;;;;;15.10;5.73;;;-1.70;99.90;;;;;;4901121;29;20051;-87
2022/03/09 03:16:14;;;;;;;13.67;5.90;;;-1.80;99.90;;;;;;4899944;29;20055;-87
2022/03/09 03:18:40;;;;;;;14.57;5.57;;;-1.80;99.90;;;;;;4901130;29;20040;-88
2022/03/09 03:21:06;;;;;;;13.93;5.43;;;-1.80;99.90;;;;;;4900688;29;20131;-88
2022/03/09 03:23:33;;;;;;;15.03;5.30;;;-1.80;99.90;;;;;;4900319;29;20507;-87
2022/03/09 03:25:59;;;;;;;15.13;5.83;;;-1.90;99.90;;;;;;4900869;29;20121;-88
2022/03/09 03:28:25;;;;;;;14.47;5.73;;;-1.90;99.90;;;;;;4900244;29;20071;-87
2022/03/09 03:30:51;;;;;;;13.77;6.00;;;-1.90;99.90;;;;;;4900183;29;20511;-87
2022/03/09 03:33:19;;;;;;;13.90;5.93;;;-1.80;99.90;;;;;;4900314;29;20055;-87
2022/03/09 03:35:45;;;;;;;14.93;5.77;;;-2.00;99.90;;;;;;4901744;29;20050;-88
2022/03/09 03:38:12;;;;;;;13.30;6.63;;;-1.80;99.90;;;;;;4900510;29;20052;-87
2022/03/09 03:40:37;;;;;;;13.87;5.93;;;-2.00;99.90;;;;;;4900456;29;20040;-87
2022/03/09 03:43:04;;;;;;;12.50;5.80;;;-2.00;99.90;;;;;;4899736;29;20116;-87
2022/03/09 03:45:30;;;;;;;14.00;6.20;;;-2.00;99.90;;;;;;4917357;29;20044;-87
2022/03/09 03:47:55;;;;;;;13.07;5.67;;;-2.00;99.90;;;;;;4903597;29;20078;-87
2022/03/09 03:50:21;;;;;;;13.97;5.47;;;-1.80;99.90;;;;;;4899941;29;20087;-87
2022/03/09 03:52:47;;;;;;;13.93;6.23;;;-2.00;99.90;;;;;;4900252;29;20048;-87
2022/03/09 03:55:13;;;;;;;14.97;6.30;;;-2.00;99.90;;;;;;4901739;29;20052;-86
2022/03/09 03:57:38;;;;;;;14.93;6.43;;;-2.00;99.90;;;;;;4901248;29;20040;-87
2022/03/09 04:00:05;;;;;;;13.40;5.90;;;-2.00;99.90;;;;;;4900357;29;20408;-87
2022/03/09 04:02:31;;;;;;;15.27;6.20;;;-1.90;99.90;;;;;;4900266;29;20044;-88
2022/03/09 04:04:56;;;;;;;14.87;6.27;;;-2.00;99.90;;;;;;4899533;29;20059;-87
2022/03/09 04:07:22;;;;;;;13.87;6.40;;;-2.00;99.90;;;;;;4900071;29;20048;-87
2022/03/09 04:09:48;;;;;;;12.57;5.70;;;-2.10;99.90;;;;;;4900110;29;20571;-87
2022/03/09 04:12:13;;;;;;;13.40;5.60;;;-2.10;99.90;;;;;;4898873;29;20054;-87
2022/03/09 04:14:39;;;;;;;16.33;5.90;;;-2.10;99.90;;;;;;4900096;29;20115;-87
2022/03/09 04:17:04;;;;;;;14.33;6.33;;;-2.00;99.90;;;;;;4899444;29;20139;-87
2022/03/09 04:19:30;;;;;;;11.70;5.53;;;-2.00;99.90;;;;;;4898200;29;20377;-87
2022/03/09 04:21:56;;;;;;;16.43;6.33;;;-2.00;99.90;;;;;;4900176;29;20412;-87
2022/03/09 04:24:22;;;;;;;14.47;6.20;;;-2.00;99.90;;;;;;4899518;29;20044;-87
2022/03/09 04:26:47;;;;;;;13.57;6.00;;;-2.10;99.90;;;;;;4899396;29;20050;-87
2022/03/09 04:29:13;;;;;;;13.57;6.27;;;-1.90;99.90;;;;;;4899318;29;20040;-87
2022/03/09 04:31:39;;;;;;;13.97;6.13;;;-2.10;99.90;;;;;;4899607;29;20131;-87
2022/03/09 04:34:05;;;;;;;13.97;6.50;;;-2.20;99.90;;;;;;4898238;29;20056;-87
2022/03/09 04:36:30;;;;;;;12.33;6.00;;;-2.20;99.90;;;;;;4899540;29;20048;-87
2022/03/09 04:38:56;;;;;;;15.30;6.50;;;-2.30;99.90;;;;;;4883426;29;20091;-87
2022/03/09 04:41:22;;;;;;;13.77;6.53;;;-2.30;99.90;;;;;;4883690;29;20132;-86
2022/03/09 04:43:48;;;;;;;15.40;6.77;;;-2.00;99.90;;;;;;4906195;29;20048;-87
2022/03/09 04:46:14;;;;;;;14.57;6.30;;;-2.40;99.90;;;;;;4890410;29;20049;-87
2022/03/09 04:48:39;;;;;;;15.07;6.67;;;-2.40;99.90;;;;;;4936718;23;20419;-87
2022/03/09 04:51:05;;;;;;;15.53;6.60;;;-2.40;99.90;;;;;;4918328;29;20051;-87
2022/03/09 04:53:31;;;;;;;14.13;6.77;;;-2.40;99.90;;;;;;4917724;29;20051;-87
2022/03/09 04:55:57;;;;;;;13.97;6.57;;;-2.40;99.90;;;;;;4918274;29;20139;-87
2022/03/09 04:58:24;;;;;;;12.77;5.80;;;-2.50;99.90;;;;;;4918149;29;20138;-87
2022/03/09 05:00:50;;;;;;;14.13;6.60;;;-2.50;99.90;;;;;;4913919;29;20403;-87
2022/03/09 05:03:16;;;;;;;13.87;6.57;;;-2.50;99.90;;;;;;4916599;29;20131;-87
2022/03/09 05:05:41;;;;;;;15.70;6.83;;;-2.20;99.90;;;;;;4938836;29;20079;-87
2022/03/09 05:08:09;;;;;;;16.13;6.43;;;-2.40;99.90;;;;;;4936247;29;20062;-87
2022/03/09 05:10:35;;;;;;;16.53;7.27;;;-2.60;99.90;;;;;;4937438;29;20055;-87
2022/03/09 05:13:01;;;;;;;14.50;7.23;;;-2.60;99.90;;;;;;4937367;29;20047;-87
2022/03/09 05:15:26;;;;;;;15.97;6.77;;;-2.50;99.90;;;;;;4936119;29;20836;-87
2022/03/09 05:17:53;;;;;;;16.70;7.10;;;-2.60;99.90;;;;;;4937094;29;20430;-87
2022/03/09 05:20:20;;;;;;;13.87;6.87;;;-2.60;99.90;;;;;;4936669;29;20047;-87
2022/03/09 05:22:46;;;;;;;19.27;7.93;;;-2.50;99.90;;;;;;4936535;29;20051;-87
2022/03/09 05:25:12;;;;;;;16.27;7.10;;;-2.60;99.90;;;;;;4936734;29;20047;-87
2022/03/09 05:27:39;;;;;;;16.50;6.63;;;-2.60;99.90;;;;;;4936804;29;20106;-87
2022/03/09 05:30:06;;;;;;;15.90;7.20;;;-2.60;99.90;;;;;;4937327;29;20074;-86
2022/03/09 05:32:32;;;;;;;15.40;7.40;;;-2.60;99.90;;;;;;4924920;29;20132;-87
2022/03/09 05:34:57;;;;;;;14.77;6.40;;;-2.60;99.90;;;;;;4940691;29;20484;-87
2022/03/09 05:37:23;;;;;;;16.27;7.23;;;-2.70;99.90;;;;;;4940750;29;20058;-87
2022/03/09 05:39:49;;;;;;;17.40;7.57;;;-2.20;99.90;;;;;;4941010;29;20486;-87
2022/03/09 05:42:15;;;;;;;17.30;7.93;;;-2.20;99.90;;;;;;4940044;29;20130;-87
2022/03/09 05:44:40;;;;;;;17.43;8.00;;;-2.80;99.90;;;;;;4941416;29;20134;-87
2022/03/09 05:47:06;;;;;;;16.43;7.97;;;-2.80;99.90;;;;;;4956709;29;20138;-87
2022/03/09 05:49:32;;;;;;;16.23;7.53;;;-2.80;99.90;;;;;;4986716;23;20060;-87
2022/03/09 05:51:58;;;;;;;15.03;7.37;;;-2.80;99.90;;;;;;4941408;29;20114;-87
2022/03/09 05:54:23;;;;;;;16.53;7.17;;;-2.70;99.90;;;;;;4940332;29;20058;-87
2022/03/09 05:56:49;;;;;;;16.27;7.67;;;-2.80;99.90;;;;;;4939919;29;20083;-86
2022/03/09 05:59:15;;;;;;;17.33;8.00;;;-2.80;99.90;;;;;;4940800;29;20082;-87
2022/03/09 06:01:40;;;;;;;15.37;7.83;;;-2.80;99.90;;;;;;4940586;29;20050;-87
2022/03/09 06:04:06;;;;;;;17.57;8.20;;;-2.80;99.90;;;;;;4939313;29;20044;-87
2022/03/09 06:06:31;;;;;;;14.00;7.07;;;-2.80;99.90;;;;;;4940501;29;20078;-87
2022/03/09 06:08:58;;;;;;;15.53;7.00;;;-2.80;99.90;;;;;;4940355;29;20086;-87
2022/03/09 06:11:24;;;;;;;16.90;7.30;;;-2.80;99.90;;;;;;4938918;29;20113;-86
2022/03/09 06:13:49;;;;;;;17.23;7.70;;;-2.80;99.90;;;;;;4939888;29;20054;-87
2022/03/09 06:16:15;;;;;;;18.20;7.33;;;-2.70;99.90;;;;;;4939645;29;20054;-87
2022/03/09 06:18:41;;;;;;;17.07;7.93;;;-2.70;99.90;;;;;;4939179;29;20103;-87
2022/03/09 06:21:06;;;;;;;18.33;7.43;;;-2.70;99.90;;;;;;4939821;29;20479;-87
2022/03/09 06:23:32;;;;;;;16.70;7.43;;;-2.70;99.90;;;;;;4939728;29;20047;-86
2022/03/09 06:25:58;;;;;;;15.20;7.23;;;-2.70;99.90;;;;;;4939025;29;20051;-87
2022/03/09 06:28:24;;;;;;;18.57;7.87;;;-2.60;99.90;;;;;;4939403;29;20062;-87
2022/03/09 06:30:49;;;;;;;15.77;7.13;;;-2.60;99.90;;;;;;4939951;29;20039;-87
2022/03/09 06:33:15;;;;;;;16.10;7.33;;;-2.60;99.90;;;;;;4938889;29;20047;-88
2022/03/09 06:35:41;;;;;;;15.60;7.00;;;-2.20;99.90;;;;;;4939585;29;20482;-88
2022/03/09 06:38:08;;;;;;;15.67;6.60;;;-2.50;99.90;;;;;;4939345;29;20043;-88
2022/03/09 06:40:33;;;;;;;18.37;7.33;;;-2.10;99.90;;;;;;4938335;28;20137;-89
2022/03/09 06:42:59;;;;;;;17.37;7.27;;;-2.40;99.90;;;;;;4939086;29;20123;-89
2022/03/09 06:45:27;;;;;;;14.90;6.87;;;-2.50;99.90;;;;;;4939404;29;20051;-87
2022/03/09 06:47:53;;;;;;;15.20;7.27;;;-2.70;99.90;;;;;;4939532;29;20106;-88
2022/03/09 06:50:19;;;;;;;16.97;7.50;;;-2.60;99.90;;;;;;4938792;29;20503;-89
2022/03/09 06:52:45;;;;;;;17.50;7.23;;;-2.50;99.90;;;;;;4938780;29;20047;-88
2022/03/09 06:55:22;;;;;;;16.73;7.63;;;-2.60;99.90;;;;;;4936755;29;20526;-88
2022/03/09 06:57:56;;;;;;;15.70;7.37;;;-2.10;99.90;;;;;;4939680;29;20483;-89
2022/03/09 07:00:27;;;;;;;16.30;7.73;;;-2.40;99.90;;;;;;4938089;29;20213;-89
2022/03/09 07:02:59;;;;;;;16.17;7.10;;;-2.10;99.90;;;;;;4939412;29;20039;-89
2022/03/09 07:05:35;;;;;;;14.60;6.70;;;-1.40;99.90;;;;;;4956443;28;20138;-87
2022/03/09 07:08:10;;;;;;;14.87;7.00;;;-2.20;99.90;;;;;;4957355;28;20047;-87
2022/03/09 07:10:35;;;;;;;16.27;7.10;;;-2.10;99.90;;;;;;4958348;28;20042;-88
2022/03/09 07:13:01;;;;;;;14.90;6.73;;;-1.60;99.90;;;;;;4958361;28;20105;-87
2022/03/09 07:15:36;;;;;;;15.07;6.50;;;-1.70;99.90;;;;;;4957930;28;20047;-86
2022/03/09 07:18:07;;;;;;;14.77;6.83;;;-1.70;99.90;;;;;;4960839;28;20050;-89
2022/03/09 07:20:48;;;;;;;16.00;7.67;;;-1.50;99.90;;;;;;4958145;28;20050;-87
2022/03/09 07:23:25;;;;;;;15.27;7.03;;;-1.50;99.90;;;;;;4957980;28;20457;-86
2022/03/09 07:25:54;;;;;;;14.77;6.67;;;-1.20;99.90;;;;;;4957950;28;20478;-86
2022/03/09 07:28:28;;;;;;;13.90;6.93;;;-1.10;99.90;;;;;;4959400;28;20047;-86
2022/03/09 07:30:54;;;;;;;17.83;7.07;;;-0.70;99.90;;;;;;4958125;28;20129;-87
2022/03/09 07:33:35;;;;;;;17.27;7.00;;;0.20;99.90;;;;;;4957341;28;20129;-91
2022/03/09 07:36:07;;;;;;;19.47;7.07;;;-0.80;99.90;;;;;;4960125;28;20042;-86
2022/03/09 07:38:33;;;;;;;15.47;7.43;;;-1.00;99.90;;;;;;4957683;28;20055;-87
2022/03/09 07:40:59;;;;;;;14.90;6.63;;;-0.10;99.90;;;;;;4958378;28;20121;-89
2022/03/09 07:43:25;;;;;;;16.07;7.00;;;-0.40;99.90;;;;;;4974098;28;20054;-88
2022/03/09 07:45:53;;;;;;;17.30;6.97;;;-0.20;99.90;;;;;;4982134;28;20038;-89
2022/03/09 07:48:19;;;;;;;15.57;7.53;;;-0.20;99.90;;;;;;4968850;28;20078;-88
2022/03/09 07:51:16;;;;;;;13.70;6.83;;;-0.10;99.90;;;;;;4959377;23;20106;-95
2022/03/09 07:53:43;;;;;;;14.67;6.33;;;1.30;99.90;;;;;;4939162;29;20078;-87
2022/03/09 07:56:12;;;;;;;14.03;6.57;;;0.30;99.90;;;;;;4939923;28;20089;-92
2022/03/09 07:58:38;;;;;;;15.33;6.93;;;0.50;99.90;;;;;;4938539;29;20093;-93
2022/03/09 08:01:04;;;;;;;13.77;6.63;;;1.90;99.90;;;;;;4937980;29;20506;-88
2022/03/09 08:03:39;;;;;;;17.00;6.40;;;1.40;99.90;;;;;;4937990;29;20137;-89
2022/03/09 08:06:04;;;;;;;14.70;6.60;;;0.80;99.90;;;;;;4937771;29;20078;-89
2022/03/09 08:08:36;;;;;;;14.77;7.27;;;1.40;99.90;;;;;;4938277;29;20144;-88
2022/03/09 08:11:02;;;;;;;13.47;6.20;;;2.10;99.90;;;;;;4937376;29;20047;-88
2022/03/09 08:13:28;;;;;;;14.43;7.00;;;1.20;99.90;;;;;;4937894;29;20054;-89
2022/03/09 08:15:53;;;;;;;14.80;6.87;;;1.20;99.90;;;;;;4938041;29;20040;-89
2022/03/09 08:18:21;;;;;;;14.17;6.30;;;1.40;99.90;;;;;;4937111;29;20087;-89
2022/03/09 08:20:59;;;;;;;12.97;6.00;;;1.90;99.90;;;;;;4938954;29;20051;-89
2022/03/09 08:23:33;;;;;;;13.53;6.90;;;1.80;99.90;;;;;;4937858;29;20043;-89
2022/03/09 08:26:17;;;;;;;14.47;6.87;;;1.90;99.90;;;;;;4937037;29;20090;-90
2022/03/09 08:28:49;;;;;;;13.32;6.18;;;2.10;99.90;;;;;;4938046;29;20054;-94
2022/03/09 08:31:27;;;;;;;15.93;6.70;;;1.60;99.90;;;;;;4937825;29;20042;-92
2022/03/09 08:33:55;;;;;;;13.70;6.23;;;2.60;99.90;;;;;;4938208;29;20051;-92
2022/03/09 08:36:54;;;;;;;13.43;6.20;;;2.70;99.90;;;;;;4936827;29;20055;-93
2022/03/09 08:39:28;;;;;;;13.75;6.18;;;3.10;99.90;;;;;;4938332;29;20118;-93
2022/03/09 08:41:54;;;;;;;13.33;6.27;;;4.50;99.90;;;;;;4938593;29;20085;-93
2022/03/09 08:44:32;;;;;;;13.03;6.13;;;4.80;99.90;;;;;;4937953;29;20083;-93
2022/03/09 08:47:05;;;;;;;13.20;5.73;;;5.00;99.90;;;;;;4937596;29;20079;-92
2022/03/09 08:49:35;;;;;;;12.45;6.05;;;3.90;99.90;;;;;;4958631;23;20569;-93
2022/03/09 08:52:04;;;;;;;12.53;5.77;;;3.70;99.90;;;;;;4963678;23;20055;-95
2022/03/09 08:54:45;;;;;;;13.97;5.93;;;4.00;99.90;;;;;;4939459;29;20047;-93
2022/03/09 08:57:21;;;;;;;13.77;5.80;;;4.20;99.90;;;;;;4937816;29;20073;-94
2022/03/09 08:59:52;;;;;;;14.97;6.30;;;4.70;99.90;;;;;;4937975;29;20051;-94
2022/03/09 09:02:24;;;;;;;13.13;6.20;;;3.60;99.90;;;;;;4937890;29;20058;-94
2022/03/09 09:05:02;;;;;;;12.70;6.07;;;4.40;99.90;;;;;;4939486;29;20049;-94
2022/03/09 09:07:34;;;;;;;12.73;5.87;;;5.50;99.90;;;;;;4942324;29;20073;-93
2022/03/09 09:10:06;;;;;;;13.27;5.97;;;5.20;99.90;;;;;;4950641;28;20537;-91
2022/03/09 09:12:31;;;;;;;12.83;5.57;;;5.10;99.90;;;;;;4943715;29;20043;-90
2022/03/09 09:15:07;;;;;;;12.37;6.17;;;5.50;99.90;;;;;;4945918;29;20521;-90
2022/03/09 09:17:34;;;;;;;12.10;6.10;;;5.20;99.90;;;;;;4946904;29;20130;-90
2022/03/09 09:20:02;;;;;;;12.50;5.63;;;5.30;99.90;;;;;;4943669;29;20081;-93
2022/03/09 09:22:28;;;;;;;13.57;5.90;;;5.90;99.90;;;;;;4942387;29;20494;-92
2022/03/09 09:24:57;;;;;;;13.17;6.00;;;5.40;99.90;;;;;;4948822;29;20047;-96
2022/03/09 09:27:23;;;;;;;12.43;5.57;;;5.60;99.90;;;;;;4963719;29;20051;-95
2022/03/09 09:29:49;;;;;;;17.93;6.67;;;6.10;99.90;;;;;;4952385;29;20070;-94
2022/03/09 09:32:32;;;;;;;12.17;5.50;;;5.60;99.90;;;;;;4942294;29;20467;-90
2022/03/09 09:34:58;;;;;;;14.30;6.40;;;6.00;99.90;;;;;;4941988;29;20039;-96
2022/03/09 09:37:27;;;;;;;12.37;6.07;;;5.80;99.90;;;;;;4944732;29;20324;-92
2022/03/09 09:39:53;;;;;;;13.10;5.83;;;7.40;99.90;;;;;;4942567;29;20111;-90
2022/03/09 09:42:28;;;;;;;11.93;5.87;;;6.10;99.90;;;;;;4940782;29;20094;-94
2022/03/09 09:45:07;;;;;;;13.50;5.87;;;6.30;99.90;;;;;;4943028;29;20102;-93
2022/03/09 09:47:39;;;;;;;13.60;5.90;;;6.40;99.90;;;;;;4941579;29;20048;-90
2022/03/09 09:50:18;;;;;;;13.73;6.23;;;6.10;99.40;;;;;;4939617;29;20078;-90
2022/03/09 09:52:57;;;;;;;13.87;6.20;;;5.40;99.90;;;;;;4940526;29;20506;-88
2022/03/09 09:55:39;;;;;;;11.83;5.93;;;7.60;99.90;;;;;;4955827;29;20062;-88
2022/03/09 09:58:20;;;;;;;12.90;5.90;;;6.70;99.90;;;;;;4957212;29;20046;-88
2022/03/09 10:00:55;;;;;;;13.83;5.93;;;6.90;99.90;;;;;;4940515;29;20047;-92
2022/03/09 10:03:34;;;;;;;12.10;5.97;;;7.70;99.10;;;;;;4939562;29;20051;-88
2022/03/09 10:06:12;;;;;;;13.60;6.30;;;7.90;99.90;;;;;;4940498;29;20102;-89
2022/03/09 10:08:39;;;;;;;15.17;6.20;;;8.10;97.40;;;;;;4940405;29;20051;-88
2022/03/09 10:11:05;;;;;;;12.43;6.37;;;7.20;99.60;;;;;;4939284;29;20517;-87
2022/03/09 10:13:41;;;;;;;13.93;6.13;;;8.30;99.90;;;;;;4940324;29;20057;-88
2022/03/09 10:16:30;;;;;;;11.57;6.13;;;7.70;97.90;;;;;;4939802;29;20058;-89
2022/03/09 10:19:00;;;;;;;14.23;6.37;;;7.90;99.90;;;;;;4940197;29;20043;-87
2022/03/09 10:22:06;;;;;;;14.10;6.07;;;8.20;98.30;;;;;;4940024;29;20051;-89
2022/03/09 10:24:35;;;;;;;12.60;6.50;;;8.30;97.70;;;;;;4920448;29;20052;-88
2022/03/09 10:27:01;;;;;;;13.77;6.10;;;8.20;98.80;;;;;;4921000;29;20126;-87
2022/03/09 10:29:35;;;;;;;13.60;6.47;;;8.50;98.80;;;;;;4937808;29;20086;-87
2022/03/09 10:32:02;;;;;;;12.97;5.97;;;8.60;96.40;;;;;;4920676;29;20103;-88
2022/03/09 10:34:29;;;;;;;13.97;7.00;;;8.80;98.00;;;;;;4920389;29;20566;-89
2022/03/09 10:37:00;;;;;;;13.87;6.43;;;10.50;98.30;;;;;;4921089;29;20091;-89
2022/03/09 10:39:29;;;;;;;16.67;6.23;;;9.90;97.90;;;;;;4941893;29;20563;-95
2022/03/09 10:42:03;;;;;;;13.05;6.05;;;9.80;97.10;;;;;;4921795;29;20098;-94
2022/03/09 10:44:57;;;;;;;13.63;6.80;;;9.80;95.00;;;;;;4924380;29;20051;-96
2022/03/09 10:47:40;;;;;;;13.27;6.57;;;9.00;94.40;;;;;;4926121;29;20051;-96
2022/03/09 10:50:13;;;;;;;13.68;6.55;;;9.60;94.60;;;;;;4943930;29;20051;-95
2022/03/09 10:53:06;;;;;;;12.63;6.68;;;9.90;92.20;;;;;;4919608;29;20069;-96
2022/03/09 10:55:38;;;;;;;14.20;6.80;;;10.00;93.60;;;;;;4906969;29;20032;-95
2022/03/09 10:58:22;;;;;;;13.18;6.97;;;10.20;94.40;;;;;;4900689;29;20105;-93
2022/03/09 11:04:26;;;;;;;13.52;6.82;;;10.00;94.90;;;;;;4909335;29;20172;-93
2022/03/09 11:07:00;;;;;;;13.45;7.05;;;10.40;91.30;;;;;;4901705;29;20044;-95
2022/03/09 11:09:38;;;;;;;13.20;6.97;;;11.80;93.00;;;;;;4886199;29;20061;-93
2022/03/09 11:12:19;;;;;;;14.95;7.15;;;11.00;91.70;;;;;;4904136;29;20052;-94
2022/03/09 11:15:03;;;;;;;12.93;7.07;;;11.20;92.00;;;;;;4887478;29;20056;-94
2022/03/09 11:17:55;;;;;;;12.93;6.70;;;11.30;91.90;;;;;;4904860;29;20057;-96
2022/03/09 11:20:29;;;;;;;14.90;7.18;;;11.50;90.80;;;;;;4881872;29;20393;-95
2022/03/09 11:23:04;;;;;;;12.07;6.78;;;10.90;90.90;;;;;;4883662;29;20148;-94
2022/03/09 11:25:48;;;;;;;13.73;7.45;;;10.80;90.80;;;;;;4883758;29;20050;-94
2022/03/09 11:28:24;;;;;;;14.18;7.00;;;11.80;90.40;;;;;;4903932;29;20044;-96
2022/03/09 11:31:17;;;;;;;12.85;7.47;;;11.80;90.10;;;;;;4901624;29;20077;-96
2022/03/09 11:33:48;;;;;;;11.93;6.95;;;11.60;84.50;;;;;;4899163;29;20048;-95
2022/03/09 11:36:23;;;;;;;13.73;7.45;;;11.90;88.00;;;;;;4932458;23;20113;-96
2022/03/09 11:39:17;;;;;;;;;;;;;;;;;;;;;
2022/03/09 11:42:35;;;;;;;13.98;7.20;;;12.20;88.30;;;;;;4899090;28;20054;-96
2022/03/09 11:45:13;;;;;;;12.45;7.13;;;12.10;85.40;;;;;;4959995;28;20142;-96
2022/03/09 11:48:30;;;;;;;12.68;6.85;;;13.40;87.50;;;;;;4943668;23;20056;-94
2022/03/09 11:51:13;;;;;;;12.32;7.13;;;12.20;84.10;;;;;;4914094;29;20048;-96
2022/03/09 11:53:46;;;;;;;12.40;7.45;;;12.40;87.40;;;;;;4917868;29;20407;-95
2022/03/09 11:56:51;;;;;;;12.75;7.15;;;12.00;85.40;;;;;;4916933;29;20395;-95
2022/03/09 11:59:28;;;;;;;;;;;;;;;;;;;;;
2022/03/09 12:02:22;;;;;;;13.63;7.65;;;12.60;85.70;;;;;;4917999;29;20063;-96
2022/03/09 12:04:59;;;;;;;12.63;6.88;;;13.00;82.70;;;;;;4932637;29;20060;-93
2022/03/09 12:08:09;;;;;;;13.82;7.20;;;12.00;82.60;;;;;;4924361;29;20044;-96
2022/03/09 12:10:54;;;;;;;12.30;6.88;;;12.60;76.90;;;;;;4933817;29;20117;-96
2022/03/09 12:13:47;;;;;;;12.15;6.78;;;13.30;80.10;;;;;;4930035;29;20046;-96
2022/03/09 12:17:21;;;;;;;14.18;7.38;;;13.10;79.30;;;;;;4929916;29;20107;-96
2022/03/09 12:20:31;;;;;;;12.70;6.80;;;13.30;76.90;;;;;;4917746;29;20059;-96
2022/03/09 12:23:28;;;;;;;13.38;7.40;;;12.90;76.40;;;;;;4927111;29;20047;-96
2022/03/09 12:26:01;;;;;;;14.23;7.32;;;13.20;77.70;;;;;;4911302;29;20103;-96
2022/03/09 12:28:39;;;;;;;13.15;7.35;;;13.30;78.40;;;;;;4862389;29;20067;-96
2022/03/09 12:31:26;;;;;;;12.57;7.03;;;12.30;75.90;;;;;;4918002;29;20056;-96
2022/03/09 12:34:02;;;;;;;14.10;7.80;;;14.30;76.10;;;;;;4925914;29;20048;-96
2022/03/09 12:36:38;;;;;;;13.40;7.63;;;11.70;75.10;;;;;;4925642;23;20055;-94
2022/03/09 12:42:57;;;;;;;13.57;7.05;;;13.60;71.80;;;;;;4919031;29;20048;-96
2022/03/09 12:45:25;;;;;;;12.52;6.85;;;14.20;72.60;;;;;;4902203;29;20083;-95
2022/03/09 12:48:03;;;;;;;12.52;7.00;;;14.40;75.70;;;;;;4900328;29;20058;-95
2022/03/09 12:50:41;;;;;;;11.77;7.60;;;13.50;72.90;;;;;;4900728;29;20059;-94
2022/03/09 12:53:19;;;;;;;13.77;7.60;;;14.50;72.50;;;;;;4916566;29;20051;-94
2022/03/09 12:55:49;;;;;;;12.10;7.28;;;13.80;73.30;;;;;;4900730;29;20060;-96
2022/03/09 12:58:25;;;;;;;14.25;7.45;;;13.70;73.60;;;;;;4918055;29;20040;-94
2022/03/09 13:01:04;;;;;;;14.85;7.70;;;14.80;70.40;;;;;;4907179;29;20075;-94
2022/03/09 13:03:30;;;;;;;12.20;7.55;;;12.10;67.80;;;;;;4910743;29;20048;-95
2022/03/09 13:09:27;;;;;;;12.80;7.25;;;13.90;68.70;;;;;;4864378;29;20032;-94
2022/03/09 13:12:06;;;;;;;13.00;7.45;;;13.60;69.10;;;;;;4910731;29;20048;-94
2022/03/09 13:14:41;;;;;;;13.98;7.63;;;14.30;69.60;;;;;;4901043;29;20052;-95